createdAt,value
2018-11-11T00:00:24.282Z,0.00
2018-11-11T00:01:24.314Z,0.00
2018-11-11T00:02:24.438Z,0.00
2018-11-11T00:03:24.243Z,0.00
2018-11-11T00:04:24.233Z,0.00
2018-11-11T00:05:24.261Z,0.00
2018-11-11T00:06:24.242Z,0.00
2018-11-11T00:07:24.203Z,0.00
2018-11-11T00:08:24.227Z,0.00
2018-11-11T00:09:24.190Z,0.00
2018-11-11T00:10:24.180Z,0.00
2018-11-11T00:11:24.199Z,0.00
2018-11-11T00:12:24.180Z,0.00
2018-11-11T00:13:24.125Z,0.00
2018-11-11T07:08:18.737Z,8.00
2018-11-11T07:09:18.655Z,8.00
2018-11-11T07:10:18.669Z,12.00
2018-11-11T07:11:18.663Z,12.00
2018-11-11T07:12:18.616Z,8.00
2018-11-11T07:13:18.612Z,8.00
2018-11-11T07:14:18.584Z,16.00
2018-11-11T07:15:18.587Z,16.00
2018-11-11T07:16:18.618Z,16.00
2018-11-11T07:17:18.571Z,20.00
2018-11-11T07:18:18.560Z,20.00
2018-11-11T07:19:18.523Z,24.00
2018-11-11T07:20:18.550Z,24.00
2018-11-11T07:21:18.524Z,24.00
2018-11-11T07:22:18.491Z,24.00
2018-11-11T07:23:18.470Z,20.00
2018-11-11T07:24:18.567Z,20.00
2018-11-11T07:25:18.451Z,24.00
2018-11-11T07:26:18.462Z,24.00
2018-11-11T07:27:18.442Z,24.00
2018-11-11T07:28:18.417Z,20.00
2018-11-11T07:29:18.418Z,20.00
2018-11-11T07:30:18.437Z,16.00
2018-11-11T07:31:18.398Z,20.00
2018-11-11T07:32:18.374Z,16.00
2018-11-11T07:33:18.362Z,16.00
2018-11-11T07:34:18.371Z,16.00
2018-11-11T07:35:18.341Z,20.00
2018-11-11T07:36:18.397Z,20.00
2018-11-11T07:37:18.312Z,20.00
2018-11-11T07:38:18.301Z,24.00
2018-11-11T07:41:14.045Z,20.00
2018-11-11T07:42:14.074Z,20.00
2018-11-11T07:43:14.015Z,20.00
2018-11-11T07:44:13.996Z,24.00
2018-11-11T07:45:13.987Z,32.00
2018-11-11T07:46:14.013Z,32.00
2018-11-11T07:47:13.968Z,32.00
2018-11-11T07:48:13.959Z,36.00
2018-11-11T07:49:13.945Z,44.00
2018-11-11T07:50:13.934Z,40.00
2018-11-11T07:51:13.955Z,40.00
2018-11-11T07:52:13.911Z,40.00
2018-11-11T07:53:16.718Z,44.00
2018-11-11T07:54:18.710Z,52.00
2018-11-11T07:55:14.119Z,52.00
2018-11-11T07:56:13.895Z,48.00
2018-11-11T07:57:21.084Z,48.00
2018-11-11T07:58:13.868Z,40.00
2018-11-11T07:59:13.852Z,48.00
2018-11-11T08:00:14.920Z,56.00
2018-11-11T08:01:13.839Z,52.00
2018-11-11T08:02:13.871Z,44.00
2018-11-11T08:03:20.888Z,44.00
2018-11-11T08:04:13.787Z,40.00
2018-11-11T08:05:13.793Z,40.00
2018-11-11T08:06:13.844Z,36.00
2018-11-11T08:07:13.778Z,36.00
2018-11-11T08:08:14.269Z,32.00
2018-11-11T08:09:14.753Z,40.00
2018-11-11T08:10:13.722Z,32.00
2018-11-11T08:11:13.864Z,36.00
2018-11-11T08:12:13.708Z,32.00
2018-11-11T08:13:13.729Z,32.00
2018-11-11T08:14:13.700Z,36.00
2018-11-11T08:15:13.680Z,48.00
2018-11-11T08:16:13.654Z,48.00
2018-11-11T08:17:13.686Z,52.00
2018-11-11T08:18:13.656Z,56.00
2018-11-11T08:19:13.619Z,56.00
2018-11-11T08:20:13.624Z,60.00
2018-11-11T08:21:13.600Z,60.00
2018-11-11T08:22:21.962Z,60.00
2018-11-11T08:23:13.594Z,60.00
2018-11-11T08:24:13.561Z,60.00
2018-11-11T08:25:13.562Z,64.00
2018-11-11T08:26:13.543Z,76.00
2018-11-11T08:27:14.278Z,84.00
2018-11-11T08:28:13.521Z,84.00
2018-11-11T08:29:13.535Z,88.00
2018-11-11T08:30:13.506Z,88.00
2018-11-11T08:31:13.505Z,96.00
2018-11-11T08:32:13.634Z,96.00
2018-11-11T08:33:13.510Z,100.00
2018-11-11T08:34:13.473Z,108.00
2018-11-11T08:35:13.646Z,108.00
2018-11-11T08:36:13.449Z,96.00
2018-11-11T08:37:13.469Z,80.00
2018-11-11T08:38:13.411Z,80.00
2018-11-11T08:39:13.407Z,76.00
2018-11-11T08:40:13.408Z,72.00
2018-11-11T08:41:13.389Z,72.00
2018-11-11T08:42:13.796Z,68.00
2018-11-11T08:43:13.358Z,64.00
2018-11-11T08:44:13.343Z,68.00
2018-11-11T08:45:13.354Z,76.00
2018-11-11T08:46:13.373Z,80.00
2018-11-11T08:47:13.432Z,72.00
2018-11-11T08:48:13.348Z,96.00
2018-11-11T08:49:13.496Z,96.00
2018-11-11T08:50:13.299Z,104.00
2018-11-11T08:51:13.276Z,108.00
2018-11-11T08:52:13.280Z,120.00
2018-11-11T08:53:13.313Z,136.00
2018-11-11T08:54:13.284Z,140.00
2018-11-11T08:55:13.261Z,128.00
2018-11-11T08:56:13.303Z,112.00
2018-11-11T08:57:34.355Z,108.00
2018-11-11T08:58:20.788Z,108.00
2018-11-11T08:59:13.310Z,100.00
2018-11-11T09:00:13.215Z,96.00
2018-11-11T09:01:13.168Z,108.00
2018-11-11T09:02:13.443Z,92.00
2018-11-11T09:03:13.150Z,80.00
2018-11-11T09:04:13.137Z,100.00
2018-11-11T09:05:13.153Z,96.00
2018-11-11T09:06:13.135Z,116.00
2018-11-11T09:07:39.427Z,120.00
2018-11-11T09:08:38.814Z,120.00
2018-11-11T09:09:13.086Z,120.00
2018-11-11T09:10:13.067Z,120.00
2018-11-11T09:11:13.104Z,120.00
2018-11-11T09:12:13.070Z,116.00
2018-11-11T09:13:13.033Z,108.00
2018-11-11T09:14:13.018Z,108.00
2018-11-11T09:15:13.024Z,108.00
2018-11-11T09:16:13.004Z,112.00
2018-11-11T09:17:13.049Z,124.00
2018-11-11T09:18:12.982Z,96.00
2018-11-11T09:19:12.987Z,96.00
2018-11-11T09:20:12.959Z,80.00
2018-11-11T09:21:12.972Z,88.00
2018-11-11T09:22:12.957Z,84.00
2018-11-11T09:23:17.816Z,96.00
2018-11-11T09:24:12.973Z,116.00
2018-11-11T09:25:12.916Z,116.00
2018-11-11T09:26:13.027Z,112.00
2018-11-11T09:27:13.082Z,96.00
2018-11-11T09:28:12.894Z,100.00
2018-11-11T09:29:12.872Z,100.00
2018-11-11T09:30:12.878Z,84.00
2018-11-11T09:31:12.886Z,92.00
2018-11-11T09:32:13.814Z,120.00
2018-11-11T09:33:12.840Z,124.00
2018-11-11T09:34:12.806Z,160.00
2018-11-11T09:35:12.855Z,148.00
2018-11-11T09:36:12.781Z,132.00
2018-11-11T09:37:12.769Z,96.00
2018-11-11T09:38:19.505Z,92.00
2018-11-11T09:39:13.447Z,108.00
2018-11-11T09:40:12.739Z,136.00
2018-11-11T09:41:13.378Z,140.00
2018-11-11T09:42:12.723Z,156.00
2018-11-11T09:43:12.723Z,152.00
2018-11-11T09:44:12.704Z,160.00
2018-11-11T09:45:12.689Z,148.00
2018-11-11T09:46:12.713Z,144.00
2018-11-11T09:47:12.674Z,136.00
2018-11-11T09:48:12.675Z,136.00
2018-11-11T09:49:12.666Z,132.00
2018-11-11T09:50:12.629Z,124.00
2018-11-11T09:51:12.628Z,128.00
2018-11-11T09:52:12.612Z,136.00
2018-11-11T09:53:12.636Z,140.00
2018-11-11T09:54:12.773Z,140.00
2018-11-11T09:55:12.636Z,136.00
2018-11-11T09:56:12.566Z,140.00
2018-11-11T09:57:12.574Z,144.00
2018-11-11T09:58:12.857Z,140.00
2018-11-11T09:59:12.569Z,136.00
2018-11-11T10:00:12.530Z,128.00
2018-11-11T10:01:12.513Z,136.00
2018-11-11T10:02:12.499Z,132.00
2018-11-11T10:03:12.858Z,144.00
2018-11-11T10:04:12.482Z,148.00
2018-11-11T10:05:12.510Z,144.00
2018-11-11T10:06:12.571Z,132.00
2018-11-11T10:07:12.560Z,140.00
2018-11-11T10:08:12.463Z,148.00
2018-11-11T10:09:12.442Z,140.00
2018-11-11T10:10:12.453Z,148.00
2018-11-11T10:11:12.431Z,152.00
2018-11-11T10:12:12.458Z,140.00
2018-11-11T10:13:12.440Z,140.00
2018-11-11T10:14:12.376Z,152.00
2018-11-11T10:15:12.376Z,156.00
2018-11-11T10:16:12.356Z,152.00
2018-11-11T10:17:12.345Z,128.00
2018-11-11T10:18:12.369Z,108.00
2018-11-11T10:19:12.341Z,116.00
2018-11-11T10:20:12.349Z,124.00
2018-11-11T10:21:12.300Z,140.00
2018-11-11T10:22:12.287Z,132.00
2018-11-11T10:23:12.316Z,132.00
2018-11-11T10:24:12.289Z,140.00
2018-11-11T10:25:12.261Z,140.00
2018-11-11T10:26:12.247Z,140.00
2018-11-11T10:27:12.657Z,132.00
2018-11-11T10:28:12.219Z,140.00
2018-11-11T10:29:12.289Z,152.00
2018-11-11T10:30:12.200Z,152.00
2018-11-11T10:31:12.247Z,172.00
2018-11-11T10:32:12.196Z,164.00
2018-11-11T10:33:12.181Z,164.00
2018-11-11T10:34:12.198Z,176.00
2018-11-11T10:35:12.148Z,168.00
2018-11-11T10:36:12.141Z,164.00
2018-11-11T10:37:13.043Z,120.00
2018-11-11T10:38:12.147Z,128.00
2018-11-11T10:39:12.197Z,112.00
2018-11-11T10:40:12.100Z,84.00
2018-11-11T10:41:12.087Z,84.00
2018-11-11T10:42:12.074Z,92.00
2018-11-11T10:43:12.076Z,100.00
2018-11-11T10:44:12.112Z,108.00
2018-11-11T10:45:12.043Z,108.00
2018-11-11T10:46:12.036Z,112.00
2018-11-11T10:47:12.133Z,124.00
2018-11-11T10:48:12.068Z,140.00
2018-11-11T10:49:12.101Z,156.00
2018-11-11T10:50:12.333Z,164.00
2018-11-11T10:51:11.974Z,176.00
2018-11-11T10:52:11.961Z,184.00
2018-11-11T10:53:12.101Z,188.00
2018-11-11T10:54:13.396Z,188.00
2018-11-11T10:55:11.938Z,184.00
2018-11-11T10:56:11.923Z,180.00
2018-11-11T10:57:11.907Z,176.00
2018-11-11T10:58:11.903Z,164.00
2018-11-11T10:59:11.925Z,148.00
2018-11-11T11:00:11.887Z,140.00
2018-11-11T11:01:11.865Z,148.00
2018-11-11T11:02:11.859Z,140.00
2018-11-11T11:03:11.894Z,140.00
2018-11-11T11:04:11.865Z,148.00
2018-11-11T11:05:11.840Z,144.00
2018-11-11T11:06:11.883Z,152.00
2018-11-11T11:07:11.804Z,160.00
2018-11-11T11:08:11.815Z,176.00
2018-11-11T11:09:11.783Z,164.00
2018-11-11T11:10:11.806Z,152.00
2018-11-11T11:11:11.768Z,160.00
2018-11-11T11:12:11.753Z,172.00
2018-11-11T11:13:11.816Z,184.00
2018-11-11T11:14:11.730Z,188.00
2018-11-11T11:15:11.741Z,200.00
2018-11-11T11:16:11.703Z,200.00
2018-11-11T11:17:12.330Z,188.00
2018-11-11T11:18:12.332Z,172.00
2018-11-11T11:19:11.668Z,152.00
2018-11-11T11:20:11.708Z,136.00
2018-11-11T11:21:11.682Z,148.00
2018-11-11T11:22:11.638Z,168.00
2018-11-11T11:23:11.761Z,156.00
2018-11-11T11:24:11.625Z,172.00
2018-11-11T11:25:11.628Z,188.00
2018-11-11T11:26:11.594Z,196.00
2018-11-11T11:27:11.653Z,200.00
2018-11-11T11:28:11.575Z,196.00
2018-11-11T11:29:11.559Z,188.00
2018-11-11T11:30:11.576Z,188.00
2018-11-11T11:31:11.540Z,196.00
2018-11-11T11:32:11.654Z,204.00
2018-11-11T11:33:11.515Z,212.00
2018-11-11T11:34:11.511Z,220.00
2018-11-11T11:35:11.582Z,232.00
2018-11-11T11:36:11.485Z,232.00
2018-11-11T11:37:11.474Z,224.00
2018-11-11T11:38:11.510Z,220.00
2018-11-11T11:39:11.451Z,220.00
2018-11-11T11:40:12.540Z,228.00
2018-11-11T11:41:11.610Z,228.00
2018-11-11T11:42:11.639Z,232.00
2018-11-11T11:43:11.428Z,228.00
2018-11-11T11:44:11.523Z,220.00
2018-11-11T11:45:11.425Z,216.00
2018-11-11T11:46:11.426Z,212.00
2018-11-11T11:47:11.400Z,208.00
2018-11-11T11:48:11.367Z,216.00
2018-11-11T11:49:11.368Z,220.00
2018-11-11T11:50:11.399Z,232.00
2018-11-11T11:51:11.359Z,236.00
2018-11-11T11:52:11.330Z,236.00
2018-11-11T11:53:11.315Z,232.00
2018-11-11T11:54:11.295Z,220.00
2018-11-11T11:55:11.298Z,212.00
2018-11-11T11:56:11.301Z,204.00
2018-11-11T11:57:11.276Z,200.00
2018-11-11T11:58:11.334Z,200.00
2018-11-11T11:59:11.257Z,184.00
2018-11-11T12:00:11.227Z,164.00
2018-11-11T12:01:11.263Z,140.00
2018-11-11T12:02:11.286Z,116.00
2018-11-11T12:03:11.198Z,100.00
2018-11-11T12:04:11.191Z,92.00
2018-11-11T12:05:11.174Z,88.00
2018-11-11T12:06:11.201Z,88.00
2018-11-11T12:07:11.165Z,84.00
2018-11-11T12:08:11.145Z,80.00
2018-11-11T12:09:11.280Z,80.00
2018-11-11T12:10:11.132Z,72.00
2018-11-11T12:11:11.122Z,68.00
2018-11-11T12:12:11.130Z,64.00
2018-11-11T12:13:11.101Z,64.00
2018-11-11T12:14:11.076Z,60.00
2018-11-11T12:15:11.079Z,52.00
2018-11-11T12:16:11.057Z,52.00
2018-11-11T12:17:11.141Z,52.00
2018-11-11T12:18:11.038Z,60.00
2018-11-11T12:19:11.069Z,64.00
2018-11-11T12:20:11.045Z,68.00
2018-11-11T12:21:11.018Z,68.00
2018-11-11T12:22:11.012Z,64.00
2018-11-11T12:23:11.001Z,56.00
2018-11-11T12:24:10.970Z,56.00
2018-11-11T12:25:10.973Z,48.00
2018-11-11T12:26:10.940Z,48.00
2018-11-11T12:27:11.160Z,44.00
2018-11-11T12:28:10.940Z,48.00
2018-11-11T12:29:10.946Z,52.00
2018-11-11T12:30:10.912Z,64.00
2018-11-11T12:31:10.901Z,68.00
2018-11-11T12:32:10.905Z,64.00
2018-11-11T12:33:10.876Z,48.00
2018-11-11T12:34:10.860Z,36.00
2018-11-11T12:35:10.922Z,32.00
2018-11-11T12:36:10.853Z,32.00
2018-11-11T12:37:10.853Z,36.00
2018-11-11T12:38:10.822Z,36.00
2018-11-11T12:39:10.920Z,44.00
2018-11-11T12:40:10.902Z,52.00
2018-11-11T12:41:10.779Z,52.00
2018-11-11T12:42:10.819Z,44.00
2018-11-11T12:43:10.813Z,40.00
2018-11-11T12:44:10.763Z,32.00
2018-11-11T12:45:11.352Z,28.00
2018-11-11T12:46:10.741Z,32.00
2018-11-11T12:47:10.780Z,32.00
2018-11-11T12:48:10.710Z,28.00
2018-11-11T12:49:10.780Z,32.00
2018-11-11T12:50:10.737Z,36.00
2018-11-11T12:51:10.673Z,32.00
2018-11-11T12:52:10.664Z,32.00
2018-11-11T12:53:10.679Z,32.00
2018-11-11T12:54:10.639Z,36.00
2018-11-11T12:55:10.689Z,44.00
2018-11-11T12:56:10.616Z,52.00
2018-11-11T12:57:10.607Z,60.00
2018-11-11T12:58:10.619Z,60.00
2018-11-11T12:59:10.876Z,60.00
2018-11-11T13:00:10.646Z,56.00
2018-11-11T13:01:10.578Z,48.00
2018-11-11T13:02:10.556Z,48.00
2018-11-11T13:03:10.746Z,44.00
2018-11-11T13:04:10.549Z,44.00
2018-11-11T13:05:10.526Z,40.00
2018-11-11T13:06:10.509Z,32.00
2018-11-11T13:07:10.500Z,32.00
2018-11-11T13:08:10.537Z,28.00
2018-11-11T13:09:10.478Z,28.00
2018-11-11T13:10:10.473Z,28.00
2018-11-11T13:11:10.454Z,28.00
2018-11-11T13:12:10.573Z,28.00
2018-11-11T13:13:10.467Z,32.00
2018-11-11T13:14:10.432Z,40.00
2018-11-11T13:15:10.425Z,44.00
2018-11-11T13:16:10.450Z,48.00
2018-11-11T13:17:10.422Z,44.00
2018-11-11T13:18:11.370Z,40.00
2018-11-11T13:19:10.374Z,36.00
2018-11-11T13:20:10.374Z,32.00
2018-11-11T13:21:10.354Z,32.00
2018-11-11T13:22:10.384Z,28.00
2018-11-11T13:23:10.363Z,32.00
2018-11-11T13:24:10.326Z,28.00
2018-11-11T13:25:10.304Z,32.00
2018-11-11T13:26:10.307Z,36.00
2018-11-11T13:27:10.319Z,40.00
2018-11-11T13:28:10.301Z,44.00
2018-11-11T13:29:10.280Z,44.00
2018-11-11T13:30:10.253Z,44.00
2018-11-11T13:31:10.237Z,40.00
2018-11-11T13:32:10.228Z,36.00
2018-11-11T13:33:10.236Z,32.00
2018-11-11T13:34:10.233Z,32.00
2018-11-11T13:35:10.199Z,28.00
2018-11-11T13:36:10.195Z,28.00
2018-11-11T13:37:10.201Z,32.00
2018-11-11T13:38:10.192Z,28.00
2018-11-11T13:39:10.155Z,28.00
2018-11-11T13:40:10.164Z,24.00
2018-11-11T13:41:10.132Z,24.00
2018-11-11T13:42:10.137Z,24.00
2018-11-11T13:43:10.203Z,20.00
2018-11-11T13:44:10.119Z,24.00
2018-11-11T13:45:10.851Z,24.00
2018-11-11T13:46:10.129Z,24.00
2018-11-11T13:47:10.067Z,24.00
2018-11-11T13:48:10.089Z,24.00
2018-11-11T13:49:10.047Z,28.00
2018-11-11T13:50:10.037Z,28.00
2018-11-11T13:51:10.036Z,28.00
2018-11-11T13:52:10.013Z,24.00
2018-11-11T13:53:10.063Z,28.00
2018-11-11T13:54:09.998Z,28.00
2018-11-11T13:55:09.989Z,24.00
2018-11-11T13:57:25.728Z,20.00
2018-11-11T13:58:25.689Z,20.00
2018-11-11T13:59:25.646Z,16.00
2018-11-11T14:00:25.641Z,16.00
2018-11-11T14:01:25.669Z,16.00
2018-11-11T14:02:25.642Z,20.00
2018-11-11T14:03:25.623Z,20.00
2018-11-11T14:04:32.650Z,24.00
2018-11-11T14:05:25.606Z,28.00
2018-11-11T14:06:25.599Z,28.00
2018-11-11T14:07:25.599Z,28.00
2018-11-11T14:08:25.675Z,28.00
2018-11-11T14:09:25.546Z,28.00
2018-11-11T14:10:25.542Z,24.00
2018-11-11T14:11:25.539Z,24.00
2018-11-11T14:12:25.534Z,24.00
2018-11-11T14:13:25.526Z,24.00
2018-11-11T14:14:25.491Z,28.00
2018-11-11T14:15:25.482Z,24.00
2018-11-11T14:16:25.468Z,28.00
2018-11-11T14:17:25.460Z,32.00
2018-11-11T14:18:25.651Z,32.00
2018-11-11T14:19:25.528Z,36.00
2018-11-11T14:20:25.464Z,36.00
2018-11-11T14:21:25.418Z,32.00
2018-11-11T14:22:25.408Z,24.00
2018-11-11T14:23:25.430Z,24.00
2018-11-11T14:24:25.417Z,24.00
2018-11-11T14:25:25.981Z,28.00
2018-11-11T14:26:25.444Z,28.00
2018-11-11T14:27:25.348Z,32.00
2018-11-11T14:28:25.363Z,32.00
2018-11-11T14:29:25.338Z,32.00
2018-11-11T14:30:25.352Z,36.00
2018-11-11T14:31:25.318Z,32.00
2018-11-11T14:32:25.964Z,36.00
2018-11-11T14:33:25.310Z,32.00
2018-11-11T14:34:25.318Z,32.00
2018-11-11T14:35:25.270Z,28.00
2018-11-11T14:36:25.256Z,28.00
2018-11-11T14:37:25.262Z,24.00
2018-11-11T14:38:25.389Z,24.00
2018-11-11T14:39:25.223Z,24.00
2018-11-11T14:40:25.214Z,20.00
2018-11-11T14:41:25.203Z,16.00
2018-11-11T14:42:25.190Z,12.00
2018-11-11T14:43:25.226Z,12.00
2018-11-11T14:44:25.178Z,12.00
2018-11-11T14:45:25.163Z,12.00
2018-11-11T14:46:25.904Z,12.00
2018-11-11T14:47:25.140Z,8.00
2018-11-11T14:48:25.168Z,12.00
2018-11-11T14:49:25.903Z,12.00
2018-11-11T14:50:25.158Z,12.00
2018-11-11T14:51:25.094Z,8.00
2018-11-11T14:52:27.171Z,8.00
2018-11-11T14:53:25.078Z,8.00
2018-11-11T14:54:25.081Z,8.00
2018-11-11T14:55:25.973Z,12.00
2018-11-11T14:56:25.074Z,8.00
2018-11-11T14:57:25.032Z,12.00
2018-11-11T14:58:25.120Z,16.00
2018-11-11T14:59:25.031Z,24.00
2018-11-11T15:00:24.999Z,36.00
2018-11-11T15:01:25.005Z,44.00
2018-11-11T15:02:24.998Z,48.00
2018-11-11T15:03:25.915Z,48.00
2018-11-11T15:04:24.975Z,40.00
2018-11-11T15:05:24.948Z,32.00
2018-11-11T15:06:24.938Z,28.00
2018-11-11T15:07:24.931Z,28.00
2018-11-11T15:08:24.918Z,28.00
2018-11-11T15:09:24.961Z,20.00
2018-11-11T15:10:24.897Z,20.00
2018-11-11T15:11:25.100Z,16.00
2018-11-11T15:12:33.224Z,12.00
2018-11-11T15:13:25.443Z,12.00
2018-11-11T15:14:24.876Z,12.00
2018-11-11T15:15:24.880Z,12.00
2018-11-11T15:16:24.830Z,12.00
2018-11-11T15:17:24.819Z,12.00
2018-11-11T15:18:24.826Z,8.00
2018-11-11T15:19:25.036Z,4.00
2018-11-11T15:20:24.950Z,8.00
2018-11-11T15:21:24.777Z,4.00
2018-11-11T15:22:24.766Z,4.00
2018-11-11T15:23:24.762Z,4.00
2018-11-11T15:24:24.772Z,4.00
2018-11-11T15:25:24.754Z,4.00
2018-11-11T15:26:24.746Z,4.00
2018-11-11T15:27:24.713Z,4.00
2018-11-11T15:28:24.703Z,4.00
2018-11-11T15:29:24.969Z,4.00
2018-11-11T15:30:24.795Z,4.00
2018-11-11T15:31:24.732Z,8.00
2018-11-11T15:32:24.665Z,8.00
2018-11-11T15:33:24.648Z,4.00
2018-11-11T15:34:24.692Z,4.00
2018-11-11T15:35:24.637Z,8.00
2018-11-11T15:36:24.636Z,4.00
2018-11-11T15:37:24.607Z,4.00
2018-11-11T15:38:24.612Z,4.00
2018-11-11T15:39:24.584Z,4.00
2018-11-11T15:40:24.592Z,4.00
2018-11-11T15:41:24.572Z,0.00
2018-11-11T15:42:24.579Z,0.00
2018-11-11T15:43:24.546Z,4.00
2018-11-11T15:44:24.539Z,4.00
2018-11-11T15:45:24.569Z,4.00
2018-11-11T15:46:24.509Z,0.00
2018-11-11T15:47:24.504Z,0.00
2018-11-11T15:48:24.507Z,0.00
2018-11-11T15:49:24.478Z,0.00
2018-11-11T15:50:24.490Z,0.00
2018-11-11T15:51:24.459Z,0.00
2018-11-11T15:52:24.597Z,0.00
2018-11-11T15:53:24.435Z,0.00
2018-11-11T15:54:24.455Z,0.00
2018-11-11T15:55:24.433Z,0.00
2018-11-11T15:56:24.420Z,0.00
2018-11-11T15:57:24.394Z,0.00
2018-11-11T15:58:24.385Z,0.00
2018-11-11T15:59:24.472Z,0.00
2018-11-11T16:00:24.392Z,0.00
2018-11-11T16:01:24.964Z,0.00
2018-11-11T16:02:24.353Z,0.00
2018-11-11T16:03:24.328Z,0.00
2018-11-11T16:04:24.321Z,0.00
2018-11-11T16:05:24.327Z,0.00
2018-11-11T16:06:24.377Z,0.00
2018-11-11T16:07:24.289Z,0.00
2018-11-11T16:08:24.291Z,0.00
2018-11-11T16:09:24.263Z,0.00
2018-11-11T16:10:24.334Z,0.00
2018-11-11T16:11:24.248Z,0.00
2018-11-11T16:12:24.252Z,0.00
2018-11-11T16:13:24.226Z,0.00
2018-11-11T16:14:24.237Z,0.00
2018-11-11T16:15:24.201Z,0.00
2018-11-11T16:16:24.211Z,0.00
2018-11-11T16:17:24.182Z,0.00
2018-11-11T16:18:24.192Z,0.00
2018-11-11T16:19:24.161Z,0.00
2018-11-11T16:20:24.253Z,0.00
2018-11-11T16:21:24.173Z,0.00
2018-11-11T16:22:24.128Z,0.00
2018-11-11T16:23:24.128Z,0.00
2018-11-11T16:24:24.108Z,0.00
2018-11-11T16:25:24.140Z,0.00
2018-11-11T16:26:24.125Z,0.00
2018-11-11T16:27:24.077Z,0.00
2018-11-11T16:28:24.065Z,0.00
2018-11-11T16:29:24.060Z,0.00
2018-11-11T16:30:24.043Z,0.00
2018-11-11T16:31:24.071Z,0.00
2018-11-11T16:32:24.048Z,0.00
2018-11-11T16:33:24.011Z,0.00
2018-11-11T16:34:24.000Z,0.00
2018-11-11T16:35:23.994Z,0.00
2018-11-11T16:36:24.062Z,0.00
2018-11-11T16:37:23.998Z,0.00
2018-11-11T16:38:23.986Z,0.00
2018-11-11T16:39:24.091Z,0.00
2018-11-11T16:40:23.942Z,0.00
2018-11-11T16:41:23.995Z,0.00
2018-11-11T16:42:23.915Z,0.00
2018-11-11T16:43:23.910Z,0.00
2018-11-11T16:44:23.910Z,0.00
2018-11-11T16:45:23.884Z,0.00
2018-11-11T16:46:25.034Z,0.00
2018-11-11T16:47:23.861Z,0.00
2018-11-11T16:48:23.852Z,0.00
2018-11-11T16:49:23.853Z,0.00
2018-11-11T16:50:23.844Z,0.00
2018-11-11T16:51:23.820Z,0.00
2018-11-11T16:52:23.828Z,0.00
2018-11-11T16:53:24.460Z,0.00
2018-11-11T16:54:23.790Z,0.00
2018-11-11T16:55:23.885Z,0.00
2018-11-11T16:56:23.775Z,0.00
2018-11-11T16:57:23.789Z,0.00
2018-11-11T16:58:23.746Z,0.00
2018-11-11T16:59:23.736Z,0.00
2018-11-11T17:00:23.724Z,0.00
2018-11-11T17:01:23.733Z,0.00
2018-11-11T17:02:23.725Z,0.00
2018-11-11T17:03:23.694Z,0.00
2018-11-11T17:04:23.775Z,0.00
2018-11-11T17:05:23.684Z,0.00
2018-11-11T17:06:23.662Z,0.00
2018-11-11T17:07:23.702Z,0.00
2018-11-11T17:08:23.651Z,0.00
2018-11-11T17:09:23.629Z,0.00
2018-11-11T17:10:23.623Z,0.00
2018-11-11T17:11:23.609Z,0.00
2018-11-11T17:12:24.030Z,0.00
2018-11-11T17:13:23.593Z,0.00
2018-11-11T17:14:23.741Z,0.00
2018-11-11T17:15:23.565Z,0.00
2018-11-11T17:16:23.569Z,0.00
2018-11-11T17:17:23.545Z,0.00
2018-11-11T17:18:23.567Z,0.00
2018-11-11T17:19:23.530Z,0.00
2018-11-11T17:20:23.732Z,0.00
2018-11-11T17:21:23.579Z,0.00
2018-11-11T17:22:23.583Z,0.00
2018-11-11T17:23:23.499Z,0.00
2018-11-11T17:24:23.469Z,0.00
2018-11-11T17:25:23.525Z,0.00
2018-11-11T17:26:23.463Z,0.00
2018-11-11T17:27:23.464Z,0.00
2018-11-11T17:28:23.539Z,0.00
2018-11-11T17:29:23.456Z,0.00
2018-11-11T17:30:23.407Z,0.00
2018-11-11T17:31:23.400Z,0.00
2018-11-11T17:32:23.405Z,0.00
2018-11-11T17:33:23.412Z,0.00
2018-11-11T17:34:23.367Z,0.00
2018-11-11T17:35:23.354Z,0.00
2018-11-11T17:36:23.343Z,0.00
2018-11-11T17:37:23.331Z,0.00
2018-11-11T17:38:23.348Z,0.00
2018-11-11T17:39:23.339Z,0.00
2018-11-11T17:40:23.302Z,0.00
2018-11-11T17:41:23.291Z,0.00
2018-11-11T17:42:23.280Z,0.00
2018-11-11T17:43:23.288Z,0.00
2018-11-11T17:44:23.258Z,0.00
2018-11-11T17:45:23.262Z,0.00
2018-11-11T17:46:23.239Z,0.00
2018-11-11T17:47:23.224Z,0.00
2018-11-11T17:48:23.269Z,0.00
2018-11-11T17:49:23.213Z,0.00
2018-11-11T17:50:23.193Z,0.00
2018-11-11T17:51:23.201Z,0.00
2018-11-11T17:52:23.177Z,0.00
2018-11-11T17:53:23.195Z,0.00
2018-11-11T17:54:23.169Z,0.00
2018-11-11T17:55:23.241Z,0.00
2018-11-11T17:56:23.143Z,0.00
2018-11-11T17:57:23.119Z,0.00
2018-11-11T17:58:23.120Z,0.00
2018-11-11T17:59:23.990Z,0.00
2018-11-11T18:00:23.094Z,0.00
2018-11-11T18:01:23.082Z,0.00
2018-11-11T18:02:23.123Z,0.00
2018-11-11T18:03:23.151Z,0.00
2018-11-11T18:04:23.089Z,0.00
2018-11-11T18:05:23.050Z,0.00
2018-11-11T18:06:23.025Z,0.00
2018-11-11T18:07:23.020Z,0.00
2018-11-11T18:08:23.003Z,0.00
2018-11-11T18:09:23.027Z,0.00
2018-11-11T18:10:23.016Z,0.00
2018-11-11T18:11:22.971Z,0.00
2018-11-11T18:12:22.961Z,0.00
2018-11-11T18:13:23.001Z,0.00
2018-11-11T18:14:23.028Z,0.00
2018-11-11T18:15:22.928Z,0.00
2018-11-11T18:16:22.932Z,0.00
2018-11-11T18:17:22.986Z,0.00
2018-11-11T18:18:22.900Z,0.00
2018-11-11T18:19:22.927Z,0.00
2018-11-11T18:20:22.878Z,0.00
2018-11-11T18:21:22.864Z,0.00
2018-11-11T18:22:22.853Z,0.00
2018-11-11T18:23:22.847Z,0.00
2018-11-11T18:24:22.839Z,0.00
2018-11-11T18:25:22.842Z,0.00
2018-11-11T18:26:22.839Z,0.00
2018-11-11T18:27:23.010Z,0.00
2018-11-11T18:28:22.891Z,0.00
2018-11-11T18:29:22.808Z,0.00
2018-11-11T18:30:22.813Z,0.00
2018-11-11T18:31:22.762Z,0.00
2018-11-11T18:32:22.749Z,0.00
2018-11-11T18:33:27.478Z,0.00
2018-11-11T18:34:22.793Z,0.00
2018-11-11T18:35:22.735Z,0.00
2018-11-11T18:36:23.510Z,0.00
2018-11-11T18:37:22.700Z,0.00
2018-11-11T18:38:22.700Z,0.00
2018-11-11T18:39:22.675Z,0.00
2018-11-11T18:40:23.481Z,0.00
2018-11-11T18:41:22.654Z,0.00
2018-11-11T18:42:22.695Z,0.00
2018-11-11T18:43:22.646Z,0.00
2018-11-11T18:44:23.480Z,0.00
2018-11-11T18:45:22.649Z,0.00
2018-11-11T18:46:22.599Z,0.00
2018-11-11T18:47:22.594Z,0.00
2018-11-11T18:48:22.580Z,0.00
2018-11-11T18:49:22.578Z,0.00
2018-11-11T18:50:22.577Z,0.00
2018-11-11T18:51:22.546Z,0.00
2018-11-11T18:52:22.535Z,0.00
2018-11-11T18:53:22.553Z,0.00
2018-11-11T18:54:22.517Z,0.00
2018-11-11T18:55:22.543Z,0.00
2018-11-11T18:56:22.495Z,0.00
2018-11-11T18:57:22.685Z,0.00
2018-11-11T18:58:22.484Z,0.00
2018-11-11T18:59:22.480Z,0.00
2018-11-11T19:00:23.539Z,0.00
2018-11-11T19:01:22.478Z,0.00
2018-11-11T19:02:22.455Z,0.00
2018-11-11T19:03:22.424Z,0.00
2018-11-11T19:04:22.464Z,0.00
2018-11-11T19:05:22.443Z,0.00
2018-11-11T19:06:22.389Z,0.00
2018-11-11T19:07:22.381Z,0.00
2018-11-11T19:08:22.403Z,0.00
2018-11-11T19:09:22.388Z,0.00
2018-11-11T19:10:22.446Z,0.00
2018-11-11T19:11:22.351Z,0.00
2018-11-11T19:12:22.325Z,0.00
2018-11-11T19:13:22.365Z,0.00
2018-11-11T19:14:22.318Z,0.00
2018-11-11T19:15:22.339Z,0.00
2018-11-11T19:16:22.281Z,0.00
2018-11-11T19:17:22.276Z,0.00
2018-11-11T19:18:29.314Z,0.00
2018-11-11T19:19:23.309Z,0.00
2018-11-11T19:20:22.376Z,0.00
2018-11-11T19:21:22.428Z,0.00
2018-11-11T19:22:22.578Z,0.00
2018-11-11T19:23:22.260Z,0.00
2018-11-11T19:24:22.287Z,0.00
2018-11-11T19:25:22.231Z,0.00
2018-11-11T19:26:22.196Z,0.00
2018-11-11T19:27:22.186Z,0.00
2018-11-11T19:28:22.258Z,0.00
2018-11-11T19:29:22.163Z,0.00
2018-11-11T19:30:22.619Z,0.00
2018-11-11T19:31:22.163Z,0.00
2018-11-11T19:32:22.153Z,0.00
2018-11-11T19:33:22.166Z,0.00
2018-11-11T19:34:22.100Z,0.00
2018-11-11T19:35:22.119Z,0.00
2018-11-11T19:36:22.127Z,0.00
2018-11-11T19:37:22.077Z,0.00
2018-11-11T19:38:22.081Z,0.00
2018-11-11T19:39:22.042Z,0.00
2018-11-11T19:40:22.073Z,0.00
2018-11-11T19:41:23.653Z,0.00
2018-11-11T19:42:22.066Z,0.00
2018-11-11T19:43:22.026Z,0.00
2018-11-11T19:44:21.984Z,0.00
2018-11-11T19:45:21.979Z,0.00
2018-11-11T19:46:21.991Z,0.00
2018-11-11T19:47:43.611Z,0.00
2018-11-11T19:48:25.663Z,0.00
2018-11-11T19:49:24.545Z,0.00
2018-11-11T19:50:23.556Z,0.00
2018-11-11T19:51:44.661Z,0.00
2018-11-11T19:52:21.930Z,0.00
2018-11-11T19:53:21.925Z,0.00